Pagina principală
METAR-TAF:

METAR-TAF

Aeroporturi :

Suceava, România

Aeroportul Internațional „Ștefan cel Mare” Suceava

Latitudine: 47-39N, longitudine: 026-15E, elevație: 351 m

Observații meteo curente

Raportul a fost făcut în urmă cu 24 de minute, la 06:00 UTC
Vânt 9 kt de la Nord/Nord-vest
Temperatură 10°C
Umiditate 87%
Presiune 1015 hPa
Vizibilitate: 5000 m
Nori fragmentați la o înălțime de 4800 picior
aer cețos

METAR: LRSV 220600Z 33009KT 5000 BR BKN048 10/08 Q1015 R16/29//95

Ora: 09:24 (06:24 UTC)

Prognoză

Raportul a fost făcut în urmă cu 1 oră și 24 de minute, la 05:00 UTC
Prognoză valabilă de la 22 ora 06 UTC la 22 ora 15 UTC
Vânt 10 kt de la Nord-vest
Vizibilitate de 10 km sau mai mult
nu există nori sub 1.500 m și nici cumulonimbus
Devenind
de la 22 ora 09 UTC la 22 ora 11 UTC
Vânt 4 kt din direcții variabile

TAF: LRSV 220500Z 2206/2215 32010KT CAVOK BECMG 2209/2211 VRB04KT

Observații și prognoze meteo pentru peste 4.000 de aeroporturi (rapoarte METAR și TAF).

Stațiile disponibile sunt reprezentate pe hartă prin puncte galbene și roșii.

Țineți indicatorul mouse-ului pe punctul dorit pentru a vedea denumirea stației.

Apoi, faceți clic pentru a vedea observațiile și prognozele meteorologice.

Pentru a schimba harta: Pentru mărire, faceți clic pe butoanele verzi cu cruce neagră; pentru micșorare, pe butonul verde cu o liniuță; pentru hărți învecinate, pe săgețile verzi.


METAR-TAF: